sensor_id;sensor_type;location;lat;lon;timestamp;temperature;humidity
12015;DHT22;6066;48.138;16.402;2024-03-07T00:00:15;6.80;99.90
12015;DHT22;6066;48.138;16.402;2024-03-07T00:02:43;6.70;99.90
12015;DHT22;6066;48.138;16.402;2024-03-07T00:05:12;6.70;99.90
12015;DHT22;6066;48.138;16.402;2024-03-07T00:07:39;6.70;99.90
12015;DHT22;6066;48.138;16.402;2024-03-07T00:10:06;6.80;99.90
12015;DHT22;6066;48.138;16.402;2024-03-07T00:12:33;6.70;99.90
12015;DHT22;6066;48.138;16.402;2024-03-07T00:15:00;6.70;99.90
12015;DHT22;6066;48.138;16.402;2024-03-07T00:17:27;6.80;99.90
12015;DHT22;6066;48.138;16.402;2024-03-07T00:19:54;6.80;99.90
12015;DHT22;6066;48.138;16.402;2024-03-07T00:22:23;6.70;99.90
12015;DHT22;6066;48.138;16.402;2024-03-07T00:24:52;6.70;99.90
12015;DHT22;6066;48.138;16.402;2024-03-07T00:27:18;6.70;99.90
12015;DHT22;6066;48.138;16.402;2024-03-07T00:29:46;6.60;99.90
12015;DHT22;6066;48.138;16.402;2024-03-07T00:32:18;6.60;99.90
12015;DHT22;6066;48.138;16.402;2024-03-07T00:34:47;6.60;99.90
12015;DHT22;6066;48.138;16.402;2024-03-07T00:37:13;6.50;99.90
12015;DHT22;6066;48.138;16.402;2024-03-07T00:39:42;6.50;99.90
12015;DHT22;6066;48.138;16.402;2024-03-07T00:42:09;6.50;99.90
12015;DHT22;6066;48.138;16.402;2024-03-07T00:44:36;6.40;99.90
12015;DHT22;6066;48.138;16.402;2024-03-07T00:47:02;6.40;99.90
12015;DHT22;6066;48.138;16.402;2024-03-07T00:49:29;6.40;99.90
12015;DHT22;6066;48.138;16.402;2024-03-07T00:51:57;6.30;99.90
12015;DHT22;6066;48.138;16.402;2024-03-07T00:54:24;6.20;99.90
12015;DHT22;6066;48.138;16.402;2024-03-07T00:56:52;6.20;99.90
12015;DHT22;6066;48.138;16.402;2024-03-07T00:59:20;6.20;99.90
12015;DHT22;6066;48.138;16.402;2024-03-07T01:01:47;6.20;99.90
12015;DHT22;6066;48.138;16.402;2024-03-07T01:04:14;6.20;99.90
12015;DHT22;6066;48.138;16.402;2024-03-07T01:06:41;6.30;99.90
12015;DHT22;6066;48.138;16.402;2024-03-07T01:09:08;6.20;99.90
12015;DHT22;6066;48.138;16.402;2024-03-07T01:11:39;6.30;99.90
12015;DHT22;6066;48.138;16.402;2024-03-07T01:14:07;6.20;99.90
12015;DHT22;6066;48.138;16.402;2024-03-07T01:16:34;6.20;99.90
12015;DHT22;6066;48.138;16.402;2024-03-07T01:19:01;6.20;99.90
12015;DHT22;6066;48.138;16.402;2024-03-07T01:21:28;6.30;99.90
12015;DHT22;6066;48.138;16.402;2024-03-07T01:23:56;6.20;99.90
12015;DHT22;6066;48.138;16.402;2024-03-07T01:26:22;6.30;99.90
12015;DHT22;6066;48.138;16.402;2024-03-07T01:28:50;6.30;99.90
12015;DHT22;6066;48.138;16.402;2024-03-07T01:31:18;6.30;99.90
12015;DHT22;6066;48.138;16.402;2024-03-07T01:33:45;6.40;99.90
12015;DHT22;6066;48.138;16.402;2024-03-07T01:36:12;6.40;99.90
12015;DHT22;6066;48.138;16.402;2024-03-07T01:38:39;6.40;99.90
12015;DHT22;6066;48.138;16.402;2024-03-07T01:41:05;6.40;99.90
12015;DHT22;6066;48.138;16.402;2024-03-07T01:43:32;6.50;99.90
12015;DHT22;6066;48.138;16.402;2024-03-07T01:45:59;6.50;99.90
12015;DHT22;6066;48.138;16.402;2024-03-07T01:48:27;6.40;99.90
12015;DHT22;6066;48.138;16.402;2024-03-07T01:50:54;6.50;99.90
12015;DHT22;6066;48.138;16.402;2024-03-07T01:53:22;6.50;99.90
12015;DHT22;6066;48.138;16.402;2024-03-07T01:55:49;6.40;99.90
12015;DHT22;6066;48.138;16.402;2024-03-07T01:58:17;6.50;99.90
12015;DHT22;6066;48.138;16.402;2024-03-07T02:00:44;6.50;99.90
12015;DHT22;6066;48.138;16.402;2024-03-07T02:03:11;6.50;99.90
12015;DHT22;6066;48.138;16.402;2024-03-07T02:05:40;6.60;99.90
12015;DHT22;6066;48.138;16.402;2024-03-07T02:08:07;6.50;99.90
12015;DHT22;6066;48.138;16.402;2024-03-07T02:10:34;6.50;99.90
12015;DHT22;6066;48.138;16.402;2024-03-07T02:13:01;6.50;99.90
12015;DHT22;6066;48.138;16.402;2024-03-07T02:15:28;6.50;99.90
12015;DHT22;6066;48.138;16.402;2024-03-07T02:17:54;6.50;99.90
12015;DHT22;6066;48.138;16.402;2024-03-07T02:20:23;6.50;99.90
12015;DHT22;6066;48.138;16.402;2024-03-07T02:22:51;6.40;99.90
12015;DHT22;6066;48.138;16.402;2024-03-07T02:25:17;6.40;99.90
12015;DHT22;6066;48.138;16.402;2024-03-07T02:27:45;6.50;99.90
12015;DHT22;6066;48.138;16.402;2024-03-07T02:30:12;6.50;99.90
12015;DHT22;6066;48.138;16.402;2024-03-07T02:32:40;6.50;99.90
12015;DHT22;6066;48.138;16.402;2024-03-07T02:35:07;6.60;99.90
12015;DHT22;6066;48.138;16.402;2024-03-07T02:37:34;6.60;99.90
12015;DHT22;6066;48.138;16.402;2024-03-07T02:40:02;6.50;99.90
12015;DHT22;6066;48.138;16.402;2024-03-07T02:42:29;6.60;99.90
12015;DHT22;6066;48.138;16.402;2024-03-07T02:44:56;6.60;99.90
12015;DHT22;6066;48.138;16.402;2024-03-07T02:47:23;6.50;99.90
12015;DHT22;6066;48.138;16.402;2024-03-07T02:49:50;6.50;99.90
12015;DHT22;6066;48.138;16.402;2024-03-07T02:52:17;6.50;99.90
12015;DHT22;6066;48.138;16.402;2024-03-07T02:54:43;6.50;99.90
12015;DHT22;6066;48.138;16.402;2024-03-07T02:57:11;6.50;99.90
12015;DHT22;6066;48.138;16.402;2024-03-07T02:59:38;6.40;99.90
12015;DHT22;6066;48.138;16.402;2024-03-07T03:02:05;6.40;99.90
12015;DHT22;6066;48.138;16.402;2024-03-07T03:04:32;6.40;99.90
12015;DHT22;6066;48.138;16.402;2024-03-07T03:06:59;6.40;99.90
12015;DHT22;6066;48.138;16.402;2024-03-07T03:09:26;6.30;99.90
12015;DHT22;6066;48.138;16.402;2024-03-07T03:11:53;6.40;99.90
12015;DHT22;6066;48.138;16.402;2024-03-07T03:14:22;6.40;99.90
12015;DHT22;6066;48.138;16.402;2024-03-07T03:16:49;6.30;99.90
12015;DHT22;6066;48.138;16.402;2024-03-07T03:19:15;6.30;99.90
12015;DHT22;6066;48.138;16.402;2024-03-07T03:21:42;6.30;99.90
12015;DHT22;6066;48.138;16.402;2024-03-07T03:24:09;6.30;99.90
12015;DHT22;6066;48.138;16.402;2024-03-07T03:26:36;6.30;99.90
12015;DHT22;6066;48.138;16.402;2024-03-07T03:29:02;6.40;99.90
12015;DHT22;6066;48.138;16.402;2024-03-07T03:31:31;6.40;99.90
12015;DHT22;6066;48.138;16.402;2024-03-07T03:33:57;6.40;99.90
12015;DHT22;6066;48.138;16.402;2024-03-07T03:36:24;6.40;99.90
12015;DHT22;6066;48.138;16.402;2024-03-07T03:38:51;6.40;99.90
12015;DHT22;6066;48.138;16.402;2024-03-07T03:41:18;6.40;99.90
12015;DHT22;6066;48.138;16.402;2024-03-07T03:43:44;6.40;99.90
12015;DHT22;6066;48.138;16.402;2024-03-07T03:46:12;6.40;99.90
12015;DHT22;6066;48.138;16.402;2024-03-07T03:48:41;6.30;99.90
12015;DHT22;6066;48.138;16.402;2024-03-07T03:51:07;6.30;99.90
12015;DHT22;6066;48.138;16.402;2024-03-07T03:53:35;6.30;99.90
12015;DHT22;6066;48.138;16.402;2024-03-07T03:56:02;6.30;99.90
12015;DHT22;6066;48.138;16.402;2024-03-07T03:58:30;6.30;99.90
12015;DHT22;6066;48.138;16.402;2024-03-07T04:00:56;6.30;99.90
12015;DHT22;6066;48.138;16.402;2024-03-07T04:03:24;6.30;99.90
12015;DHT22;6066;48.138;16.402;2024-03-07T04:05:52;6.30;99.90
12015;DHT22;6066;48.138;16.402;2024-03-07T04:08:20;6.30;99.90
12015;DHT22;6066;48.138;16.402;2024-03-07T04:10:47;6.40;99.90
12015;DHT22;6066;48.138;16.402;2024-03-07T04:13:14;6.30;99.90
12015;DHT22;6066;48.138;16.402;2024-03-07T04:15:40;6.40;99.90
12015;DHT22;6066;48.138;16.402;2024-03-07T04:18:07;6.40;99.90
12015;DHT22;6066;48.138;16.402;2024-03-07T04:20:34;6.30;99.90
12015;DHT22;6066;48.138;16.402;2024-03-07T04:23:02;6.30;99.90
12015;DHT22;6066;48.138;16.402;2024-03-07T04:25:29;6.40;99.90
12015;DHT22;6066;48.138;16.402;2024-03-07T04:27:58;6.40;99.90
12015;DHT22;6066;48.138;16.402;2024-03-07T04:30:25;6.40;99.90
12015;DHT22;6066;48.138;16.402;2024-03-07T04:32:52;6.40;99.90
12015;DHT22;6066;48.138;16.402;2024-03-07T04:35:18;6.40;99.90
12015;DHT22;6066;48.138;16.402;2024-03-07T04:37:46;6.40;99.90
12015;DHT22;6066;48.138;16.402;2024-03-07T04:40:16;6.40;99.90
12015;DHT22;6066;48.138;16.402;2024-03-07T04:42:44;6.30;99.90
12015;DHT22;6066;48.138;16.402;2024-03-07T04:45:11;6.30;99.90
12015;DHT22;6066;48.138;16.402;2024-03-07T04:47:39;6.40;99.90
12015;DHT22;6066;48.138;16.402;2024-03-07T04:50:07;6.30;99.90
12015;DHT22;6066;48.138;16.402;2024-03-07T04:52:36;6.30;99.90
12015;DHT22;6066;48.138;16.402;2024-03-07T04:55:03;6.30;99.90
12015;DHT22;6066;48.138;16.402;2024-03-07T04:57:31;6.30;99.90
12015;DHT22;6066;48.138;16.402;2024-03-07T04:59:58;6.30;99.90
12015;DHT22;6066;48.138;16.402;2024-03-07T05:02:24;6.30;99.90
12015;DHT22;6066;48.138;16.402;2024-03-07T05:04:51;6.40;99.90
12015;DHT22;6066;48.138;16.402;2024-03-07T05:07:18;6.30;99.90
12015;DHT22;6066;48.138;16.402;2024-03-07T05:09:45;6.30;99.90
12015;DHT22;6066;48.138;16.402;2024-03-07T05:12:12;6.40;99.90
12015;DHT22;6066;48.138;16.402;2024-03-07T05:14:40;6.40;99.90
12015;DHT22;6066;48.138;16.402;2024-03-07T05:17:07;6.30;99.90
12015;DHT22;6066;48.138;16.402;2024-03-07T05:19:34;6.30;99.90
12015;DHT22;6066;48.138;16.402;2024-03-07T05:22:01;6.30;99.90
12015;DHT22;6066;48.138;16.402;2024-03-07T05:24:30;6.30;99.90
12015;DHT22;6066;48.138;16.402;2024-03-07T05:26:58;6.30;99.90
12015;DHT22;6066;48.138;16.402;2024-03-07T05:29:24;6.30;99.90
12015;DHT22;6066;48.138;16.402;2024-03-07T05:31:53;6.20;99.90
12015;DHT22;6066;48.138;16.402;2024-03-07T05:34:20;6.20;99.90
12015;DHT22;6066;48.138;16.402;2024-03-07T05:36:48;6.30;99.90
12015;DHT22;6066;48.138;16.402;2024-03-07T05:39:16;6.30;99.90
12015;DHT22;6066;48.138;16.402;2024-03-07T05:41:43;6.20;99.90
12015;DHT22;6066;48.138;16.402;2024-03-07T05:44:11;6.20;99.90
12015;DHT22;6066;48.138;16.402;2024-03-07T05:46:38;6.30;99.90
12015;DHT22;6066;48.138;16.402;2024-03-07T05:49:08;6.30;99.90
12015;DHT22;6066;48.138;16.402;2024-03-07T05:51:35;6.20;99.90
12015;DHT22;6066;48.138;16.402;2024-03-07T05:54:02;6.20;99.90
12015;DHT22;6066;48.138;16.402;2024-03-07T05:56:32;6.10;99.90
12015;DHT22;6066;48.138;16.402;2024-03-07T05:59:01;6.10;99.90
12015;DHT22;6066;48.138;16.402;2024-03-07T06:01:29;6.10;99.90
12015;DHT22;6066;48.138;16.402;2024-03-07T06:03:59;6.10;99.90
12015;DHT22;6066;48.138;16.402;2024-03-07T06:06:28;6.10;99.90
12015;DHT22;6066;48.138;16.402;2024-03-07T06:08:57;6.00;99.90
12015;DHT22;6066;48.138;16.402;2024-03-07T06:11:24;6.00;99.90
12015;DHT22;6066;48.138;16.402;2024-03-07T06:13:51;6.00;99.90
12015;DHT22;6066;48.138;16.402;2024-03-07T06:16:17;6.00;99.90
12015;DHT22;6066;48.138;16.402;2024-03-07T06:18:45;6.00;99.90
12015;DHT22;6066;48.138;16.402;2024-03-07T06:21:12;6.00;99.90
12015;DHT22;6066;48.138;16.402;2024-03-07T06:23:41;6.00;99.90
12015;DHT22;6066;48.138;16.402;2024-03-07T06:26:12;6.10;99.90
12015;DHT22;6066;48.138;16.402;2024-03-07T06:28:42;6.10;99.90
12015;DHT22;6066;48.138;16.402;2024-03-07T06:31:10;6.00;99.90
12015;DHT22;6066;48.138;16.402;2024-03-07T06:33:37;6.00;99.90
12015;DHT22;6066;48.138;16.402;2024-03-07T06:36:04;6.00;99.90
12015;DHT22;6066;48.138;16.402;2024-03-07T06:38:31;6.00;99.90
12015;DHT22;6066;48.138;16.402;2024-03-07T06:40:59;6.10;99.90
12015;DHT22;6066;48.138;16.402;2024-03-07T06:43:26;6.10;99.90
12015;DHT22;6066;48.138;16.402;2024-03-07T06:45:54;6.10;99.90
12015;DHT22;6066;48.138;16.402;2024-03-07T06:48:21;6.10;99.90
12015;DHT22;6066;48.138;16.402;2024-03-07T06:50:48;6.10;99.90
12015;DHT22;6066;48.138;16.402;2024-03-07T06:53:16;6.10;99.90
12015;DHT22;6066;48.138;16.402;2024-03-07T06:55:43;6.20;99.90
12015;DHT22;6066;48.138;16.402;2024-03-07T06:58:11;6.20;99.90
12015;DHT22;6066;48.138;16.402;2024-03-07T07:00:37;6.30;99.90
12015;DHT22;6066;48.138;16.402;2024-03-07T07:03:05;6.40;99.90
12015;DHT22;6066;48.138;16.402;2024-03-07T07:05:32;6.40;99.90
12015;DHT22;6066;48.138;16.402;2024-03-07T07:07:59;6.50;99.90
12015;DHT22;6066;48.138;16.402;2024-03-07T07:10:26;6.60;99.90
12015;DHT22;6066;48.138;16.402;2024-03-07T07:12:53;6.50;99.90
12015;DHT22;6066;48.138;16.402;2024-03-07T07:15:21;6.40;99.90
12015;DHT22;6066;48.138;16.402;2024-03-07T07:17:48;6.30;99.90
12015;DHT22;6066;48.138;16.402;2024-03-07T07:20:15;6.20;99.90
12015;DHT22;6066;48.138;16.402;2024-03-07T07:22:43;6.10;99.90
12015;DHT22;6066;48.138;16.402;2024-03-07T07:25:11;6.10;99.90
12015;DHT22;6066;48.138;16.402;2024-03-07T07:27:40;6.00;99.90
12015;DHT22;6066;48.138;16.402;2024-03-07T07:30:07;5.90;99.90
12015;DHT22;6066;48.138;16.402;2024-03-07T07:32:36;5.90;99.90
12015;DHT22;6066;48.138;16.402;2024-03-07T07:35:03;6.00;99.90
12015;DHT22;6066;48.138;16.402;2024-03-07T07:37:35;6.00;99.90
12015;DHT22;6066;48.138;16.402;2024-03-07T07:40:01;6.00;99.90
12015;DHT22;6066;48.138;16.402;2024-03-07T07:42:28;6.00;99.90
12015;DHT22;6066;48.138;16.402;2024-03-07T07:44:55;6.00;99.90
12015;DHT22;6066;48.138;16.402;2024-03-07T07:47:22;6.10;99.90
12015;DHT22;6066;48.138;16.402;2024-03-07T07:49:50;6.10;99.90
12015;DHT22;6066;48.138;16.402;2024-03-07T07:52:16;6.20;99.90
12015;DHT22;6066;48.138;16.402;2024-03-07T07:54:43;6.20;99.90
12015;DHT22;6066;48.138;16.402;2024-03-07T07:57:09;6.20;99.90
12015;DHT22;6066;48.138;16.402;2024-03-07T07:59:36;6.20;99.90
12015;DHT22;6066;48.138;16.402;2024-03-07T08:02:03;6.20;99.90
12015;DHT22;6066;48.138;16.402;2024-03-07T08:04:31;6.20;99.90
12015;DHT22;6066;48.138;16.402;2024-03-07T08:07:01;6.20;99.90
12015;DHT22;6066;48.138;16.402;2024-03-07T08:09:30;6.30;99.90
12015;DHT22;6066;48.138;16.402;2024-03-07T08:11:57;6.20;99.90
12015;DHT22;6066;48.138;16.402;2024-03-07T08:14:27;6.30;99.90
12015;DHT22;6066;48.138;16.402;2024-03-07T08:16:55;6.30;99.90
12015;DHT22;6066;48.138;16.402;2024-03-07T08:19:22;6.40;99.90
12015;DHT22;6066;48.138;16.402;2024-03-07T08:21:48;6.40;99.90
12015;DHT22;6066;48.138;16.402;2024-03-07T08:24:17;6.40;99.90
12015;DHT22;6066;48.138;16.402;2024-03-07T08:26:43;6.50;99.90
12015;DHT22;6066;48.138;16.402;2024-03-07T08:29:12;6.50;99.90
12015;DHT22;6066;48.138;16.402;2024-03-07T08:31:39;6.70;99.90
12015;DHT22;6066;48.138;16.402;2024-03-07T08:34:06;6.80;99.90
12015;DHT22;6066;48.138;16.402;2024-03-07T08:36:32;7.00;99.90
12015;DHT22;6066;48.138;16.402;2024-03-07T08:39:00;7.10;99.90
12015;DHT22;6066;48.138;16.402;2024-03-07T08:41:30;7.20;99.90
12015;DHT22;6066;48.138;16.402;2024-03-07T08:44:01;7.40;99.90
12015;DHT22;6066;48.138;16.402;2024-03-07T08:46:29;7.50;99.90
12015;DHT22;6066;48.138;16.402;2024-03-07T08:48:56;7.60;99.90
12015;DHT22;6066;48.138;16.402;2024-03-07T08:51:22;7.70;99.90
12015;DHT22;6066;48.138;16.402;2024-03-07T08:53:49;7.80;99.90
12015;DHT22;6066;48.138;16.402;2024-03-07T08:56:16;8.00;99.90
12015;DHT22;6066;48.138;16.402;2024-03-07T08:58:44;8.10;99.90
12015;DHT22;6066;48.138;16.402;2024-03-07T09:01:10;8.10;99.90
12015;DHT22;6066;48.138;16.402;2024-03-07T09:03:37;8.10;99.90
12015;DHT22;6066;48.138;16.402;2024-03-07T09:06:04;8.10;99.90
12015;DHT22;6066;48.138;16.402;2024-03-07T09:08:31;8.10;99.90
12015;DHT22;6066;48.138;16.402;2024-03-07T09:10:57;8.10;99.90
12015;DHT22;6066;48.138;16.402;2024-03-07T09:13:24;8.00;99.90
12015;DHT22;6066;48.138;16.402;2024-03-07T09:15:53;7.90;99.90
12015;DHT22;6066;48.138;16.402;2024-03-07T09:18:20;7.90;99.90
12015;DHT22;6066;48.138;16.402;2024-03-07T09:20:48;8.00;99.90
12015;DHT22;6066;48.138;16.402;2024-03-07T09:23:14;8.00;99.90
12015;DHT22;6066;48.138;16.402;2024-03-07T09:25:41;8.00;99.90
12015;DHT22;6066;48.138;16.402;2024-03-07T09:28:08;8.00;99.90
12015;DHT22;6066;48.138;16.402;2024-03-07T09:30:35;7.90;99.90
12015;DHT22;6066;48.138;16.402;2024-03-07T09:33:05;7.90;99.90
12015;DHT22;6066;48.138;16.402;2024-03-07T09:35:35;8.00;99.90
12015;DHT22;6066;48.138;16.402;2024-03-07T09:38:02;8.10;99.90
12015;DHT22;6066;48.138;16.402;2024-03-07T09:40:29;8.10;99.90
12015;DHT22;6066;48.138;16.402;2024-03-07T09:42:56;8.10;99.90
12015;DHT22;6066;48.138;16.402;2024-03-07T09:45:28;8.10;99.90
12015;DHT22;6066;48.138;16.402;2024-03-07T09:47:55;8.00;99.90
12015;DHT22;6066;48.138;16.402;2024-03-07T09:50:24;7.90;99.90
12015;DHT22;6066;48.138;16.402;2024-03-07T09:52:53;7.70;99.90
12015;DHT22;6066;48.138;16.402;2024-03-07T09:55:20;7.60;99.90
12015;DHT22;6066;48.138;16.402;2024-03-07T09:57:49;7.60;99.90
12015;DHT22;6066;48.138;16.402;2024-03-07T10:00:16;7.70;99.90
12015;DHT22;6066;48.138;16.402;2024-03-07T10:02:49;7.70;99.90
12015;DHT22;6066;48.138;16.402;2024-03-07T10:05:16;7.80;99.90
12015;DHT22;6066;48.138;16.402;2024-03-07T10:07:45;7.80;99.90
12015;DHT22;6066;48.138;16.402;2024-03-07T10:10:12;7.80;99.90
12015;DHT22;6066;48.138;16.402;2024-03-07T10:12:39;7.90;99.90
12015;DHT22;6066;48.138;16.402;2024-03-07T10:15:08;8.00;99.90
12015;DHT22;6066;48.138;16.402;2024-03-07T10:17:38;8.10;99.90
12015;DHT22;6066;48.138;16.402;2024-03-07T10:20:06;8.30;99.90
12015;DHT22;6066;48.138;16.402;2024-03-07T10:22:35;8.50;99.90
12015;DHT22;6066;48.138;16.402;2024-03-07T10:25:04;8.60;99.90
12015;DHT22;6066;48.138;16.402;2024-03-07T10:27:30;8.80;99.90
12015;DHT22;6066;48.138;16.402;2024-03-07T10:29:57;8.90;99.90
12015;DHT22;6066;48.138;16.402;2024-03-07T10:32:24;9.10;99.90
12015;DHT22;6066;48.138;16.402;2024-03-07T10:34:51;9.20;99.90
12015;DHT22;6066;48.138;16.402;2024-03-07T10:37:18;9.40;99.90
12015;DHT22;6066;48.138;16.402;2024-03-07T10:39:46;9.50;99.90
12015;DHT22;6066;48.138;16.402;2024-03-07T10:42:16;9.60;99.90
12015;DHT22;6066;48.138;16.402;2024-03-07T10:44:44;9.70;99.90
12015;DHT22;6066;48.138;16.402;2024-03-07T10:47:15;9.80;99.90
12015;DHT22;6066;48.138;16.402;2024-03-07T10:49:45;9.80;99.90
12015;DHT22;6066;48.138;16.402;2024-03-07T10:52:16;9.80;99.90
12015;DHT22;6066;48.138;16.402;2024-03-07T10:54:54;9.70;99.90
12015;DHT22;6066;48.138;16.402;2024-03-07T10:57:28;9.50;99.90
12015;DHT22;6066;48.138;16.402;2024-03-07T10:59:59;9.30;99.90
12015;DHT22;6066;48.138;16.402;2024-03-07T11:02:37;9.30;99.90
12015;DHT22;6066;48.138;16.402;2024-03-07T11:05:11;9.30;99.90
12015;DHT22;6066;48.138;16.402;2024-03-07T11:07:40;9.40;99.90
12015;DHT22;6066;48.138;16.402;2024-03-07T11:10:07;9.30;99.90
12015;DHT22;6066;48.138;16.402;2024-03-07T11:12:38;9.20;99.90
12015;DHT22;6066;48.138;16.402;2024-03-07T11:15:06;9.20;99.90
12015;DHT22;6066;48.138;16.402;2024-03-07T11:17:40;9.20;99.90
12015;DHT22;6066;48.138;16.402;2024-03-07T11:20:20;9.20;99.90
12015;DHT22;6066;48.138;16.402;2024-03-07T11:22:48;9.10;99.90
12015;DHT22;6066;48.138;16.402;2024-03-07T11:25:17;9.10;99.90
12015;DHT22;6066;48.138;16.402;2024-03-07T11:27:52;9.10;99.90
12015;DHT22;6066;48.138;16.402;2024-03-07T11:30:19;9.00;99.90
12015;DHT22;6066;48.138;16.402;2024-03-07T11:32:47;8.80;99.90
12015;DHT22;6066;48.138;16.402;2024-03-07T11:35:15;8.70;99.90
12015;DHT22;6066;48.138;16.402;2024-03-07T11:37:47;8.50;99.90
12015;DHT22;6066;48.138;16.402;2024-03-07T11:42:58;8.20;99.90
12015;DHT22;6066;48.138;16.402;2024-03-07T11:45:30;8.10;99.90
12015;DHT22;6066;48.138;16.402;2024-03-07T11:47:59;8.00;99.90
12015;DHT22;6066;48.138;16.402;2024-03-07T11:50:32;7.80;99.90
12015;DHT22;6066;48.138;16.402;2024-03-07T11:53:00;7.70;99.90
12015;DHT22;6066;48.138;16.402;2024-03-07T11:55:27;7.70;99.90
12015;DHT22;6066;48.138;16.402;2024-03-07T11:57:55;7.70;99.90
12015;DHT22;6066;48.138;16.402;2024-03-07T12:00:23;7.60;99.90
12015;DHT22;6066;48.138;16.402;2024-03-07T12:02:56;7.50;99.90
12015;DHT22;6066;48.138;16.402;2024-03-07T12:05:23;7.60;99.90
12015;DHT22;6066;48.138;16.402;2024-03-07T12:07:52;7.60;99.90
12015;DHT22;6066;48.138;16.402;2024-03-07T12:10:19;7.60;99.90
12015;DHT22;6066;48.138;16.402;2024-03-07T12:12:50;7.60;99.90
12015;DHT22;6066;48.138;16.402;2024-03-07T12:15:17;7.60;99.90
12015;DHT22;6066;48.138;16.402;2024-03-07T12:17:46;7.60;99.90
12015;DHT22;6066;48.138;16.402;2024-03-07T12:20:14;7.70;99.90
12015;DHT22;6066;48.138;16.402;2024-03-07T12:22:56;7.70;99.90
12015;DHT22;6066;48.138;16.402;2024-03-07T12:25:23;7.70;99.90
12015;DHT22;6066;48.138;16.402;2024-03-07T12:28:03;7.80;99.90
12015;DHT22;6066;48.138;16.402;2024-03-07T12:30:31;7.90;99.90
12015;DHT22;6066;48.138;16.402;2024-03-07T12:33:00;7.90;99.90
12015;DHT22;6066;48.138;16.402;2024-03-07T12:35:31;7.90;99.90
12015;DHT22;6066;48.138;16.402;2024-03-07T12:37:58;7.90;99.90
12015;DHT22;6066;48.138;16.402;2024-03-07T12:40:25;7.90;99.90
12015;DHT22;6066;48.138;16.402;2024-03-07T12:42:55;7.80;99.90
12015;DHT22;6066;48.138;16.402;2024-03-07T12:45:22;7.70;99.90
12015;DHT22;6066;48.138;16.402;2024-03-07T12:47:51;7.70;99.90
12015;DHT22;6066;48.138;16.402;2024-03-07T12:50:21;7.40;99.90
12015;DHT22;6066;48.138;16.402;2024-03-07T12:52:48;7.30;99.90
12015;DHT22;6066;48.138;16.402;2024-03-07T12:55:16;7.30;99.90
12015;DHT22;6066;48.138;16.402;2024-03-07T12:57:47;7.30;99.90
12015;DHT22;6066;48.138;16.402;2024-03-07T13:00:15;7.20;99.90
12015;DHT22;6066;48.138;16.402;2024-03-07T13:02:48;7.30;99.90
12015;DHT22;6066;48.138;16.402;2024-03-07T13:05:15;7.30;99.90
12015;DHT22;6066;48.138;16.402;2024-03-07T13:07:48;7.30;99.90
12015;DHT22;6066;48.138;16.402;2024-03-07T13:10:15;7.30;99.90
12015;DHT22;6066;48.138;16.402;2024-03-07T13:12:43;7.20;99.90
12015;DHT22;6066;48.138;16.402;2024-03-07T13:15:11;7.20;99.90
12015;DHT22;6066;48.138;16.402;2024-03-07T13:17:38;7.00;99.90
12015;DHT22;6066;48.138;16.402;2024-03-07T13:20:08;7.00;99.90
12015;DHT22;6066;48.138;16.402;2024-03-07T13:22:40;7.00;99.90
12015;DHT22;6066;48.138;16.402;2024-03-07T13:25:11;7.00;99.90
12015;DHT22;6066;48.138;16.402;2024-03-07T13:27:43;6.90;99.90
12015;DHT22;6066;48.138;16.402;2024-03-07T13:30:13;7.00;99.90
12015;DHT22;6066;48.138;16.402;2024-03-07T13:32:49;7.00;99.90
12015;DHT22;6066;48.138;16.402;2024-03-07T13:35:16;6.90;99.90
12015;DHT22;6066;48.138;16.402;2024-03-07T13:37:45;6.90;99.90
12015;DHT22;6066;48.138;16.402;2024-03-07T13:40:13;6.90;99.90
12015;DHT22;6066;48.138;16.402;2024-03-07T13:42:50;7.00;99.90
12015;DHT22;6066;48.138;16.402;2024-03-07T13:45:18;6.80;99.90
12015;DHT22;6066;48.138;16.402;2024-03-07T13:47:46;6.80;99.90
12015;DHT22;6066;48.138;16.402;2024-03-07T13:50:14;6.80;99.90
12015;DHT22;6066;48.138;16.402;2024-03-07T13:52:40;6.80;99.90
12015;DHT22;6066;48.138;16.402;2024-03-07T13:55:21;6.80;99.90
12015;DHT22;6066;48.138;16.402;2024-03-07T13:57:49;6.70;99.90
12015;DHT22;6066;48.138;16.402;2024-03-07T14:00:25;6.70;99.90
12015;DHT22;6066;48.138;16.402;2024-03-07T14:02:58;6.70;99.90
12015;DHT22;6066;48.138;16.402;2024-03-07T14:05:39;6.60;99.90
12015;DHT22;6066;48.138;16.402;2024-03-07T14:11:27;6.60;99.90
12015;DHT22;6066;48.138;16.402;2024-03-07T14:14:07;6.70;99.90
12015;DHT22;6066;48.138;16.402;2024-03-07T14:16:49;6.70;99.90
12015;DHT22;6066;48.138;16.402;2024-03-07T14:19:28;6.70;99.90
12015;DHT22;6066;48.138;16.402;2024-03-07T14:22:04;6.70;99.90
12015;DHT22;6066;48.138;16.402;2024-03-07T14:24:45;6.80;99.90
12015;DHT22;6066;48.138;16.402;2024-03-07T14:27:21;6.80;99.90
12015;DHT22;6066;48.138;16.402;2024-03-07T14:29:50;6.80;99.90
12015;DHT22;6066;48.138;16.402;2024-03-07T14:32:21;6.80;99.90
12015;DHT22;6066;48.138;16.402;2024-03-07T14:34:54;6.90;99.90
12015;DHT22;6066;48.138;16.402;2024-03-07T14:37:23;6.80;99.90
12015;DHT22;6066;48.138;16.402;2024-03-07T14:39:50;6.80;99.90
12015;DHT22;6066;48.138;16.402;2024-03-07T14:42:18;6.80;99.90
12015;DHT22;6066;48.138;16.402;2024-03-07T14:44:47;6.80;99.90
12015;DHT22;6066;48.138;16.402;2024-03-07T14:47:14;6.80;99.90
12015;DHT22;6066;48.138;16.402;2024-03-07T14:49:43;6.70;99.90
12015;DHT22;6066;48.138;16.402;2024-03-07T14:52:10;6.70;99.90
12015;DHT22;6066;48.138;16.402;2024-03-07T14:54:37;6.60;99.90
12015;DHT22;6066;48.138;16.402;2024-03-07T14:57:04;6.60;99.90
12015;DHT22;6066;48.138;16.402;2024-03-07T14:59:31;6.60;99.90
12015;DHT22;6066;48.138;16.402;2024-03-07T15:01:59;6.60;99.90
12015;DHT22;6066;48.138;16.402;2024-03-07T15:04:29;6.70;99.90
12015;DHT22;6066;48.138;16.402;2024-03-07T15:06:57;6.70;99.90
12015;DHT22;6066;48.138;16.402;2024-03-07T15:09:24;6.70;99.90
12015;DHT22;6066;48.138;16.402;2024-03-07T15:11:55;6.60;99.90
12015;DHT22;6066;48.138;16.402;2024-03-07T15:14:22;6.60;99.90
12015;DHT22;6066;48.138;16.402;2024-03-07T15:16:49;6.50;99.90
12015;DHT22;6066;48.138;16.402;2024-03-07T15:19:19;6.50;99.90
12015;DHT22;6066;48.138;16.402;2024-03-07T15:21:46;6.50;99.90
12015;DHT22;6066;48.138;16.402;2024-03-07T15:24:17;6.50;99.90
12015;DHT22;6066;48.138;16.402;2024-03-07T15:26:46;6.50;99.90
12015;DHT22;6066;48.138;16.402;2024-03-07T15:29:15;6.50;99.90
12015;DHT22;6066;48.138;16.402;2024-03-07T15:31:48;6.50;99.90
12015;DHT22;6066;48.138;16.402;2024-03-07T15:34:15;6.40;99.90
12015;DHT22;6066;48.138;16.402;2024-03-07T15:36:44;6.40;99.90
12015;DHT22;6066;48.138;16.402;2024-03-07T15:39:12;6.40;99.90
12015;DHT22;6066;48.138;16.402;2024-03-07T15:41:51;6.30;99.90
12015;DHT22;6066;48.138;16.402;2024-03-07T15:44:18;6.30;99.90
12015;DHT22;6066;48.138;16.402;2024-03-07T15:46:46;6.30;99.90
12015;DHT22;6066;48.138;16.402;2024-03-07T15:49:14;6.30;99.90
12015;DHT22;6066;48.138;16.402;2024-03-07T15:51:40;6.30;99.90
12015;DHT22;6066;48.138;16.402;2024-03-07T15:54:09;6.30;99.90
12015;DHT22;6066;48.138;16.402;2024-03-07T15:56:37;6.30;99.90